• Join FlightAware (Why Join?)
  • Login
  • US Flag 
12:59AM EDT


 

Airport Tracker/Info


-or-


 

Live Flight TrackerFlight Track Log ✈ N4891K ✈ 21-Apr-2013 ✈ 6J0 - KTTA

Flight Track Log - Related Links

Times and Time Zones

All times are in EDT time to prevent confusion due to time zone crossing. See the N4891K flight status page for this flight to view local times or setup timezone preferences in your user account.

Time Position Orientation Groundspeed Altitude Reporting Facility
EDT Latitude Longitude Course Direction KTS MPH feet Rate Location/Type
02:08PM 33.8058 -81.2329 44° Northeast  Level Estimated
02:09PM 33.8266 -81.2086 44° Northeast  Level Estimated
02:10PM 33.8475 -81.1843 44° Northeast  Level Estimated
02:11PM 33.8684 -81.1600 44° Northeast  Level Estimated
02:12PM 33.8893 -81.1357 44° Northeast  Level Estimated
02:13PM 33.9101 -81.1114 44° Northeast  Level Estimated
02:14PM 33.9310 -81.0871 44° Northeast  Level Estimated
02:15PM 33.9518 -81.0627 44° Northeast  Level Estimated
02:16PM 33.9726 -81.0384 44° Northeast  Level Estimated
02:17PM 33.9935 -81.0140 44° Northeast  Level Estimated
02:18PM 34.0143 -80.9896 44° Northeast  Level Estimated
02:19PM 34.0351 -80.9652 44° Northeast  Level Estimated
02:20PM 34.0560 -80.9408 44° Northeast  Level Estimated
02:21PM 34.0768 -80.9164 44° Northeast  Level Estimated
02:22PM 34.0976 -80.8920 44° Northeast  Level Estimated
02:23PM 34.1184 -80.8675 44° Northeast  Level Estimated
02:24PM 34.1392 -80.8431 44° Northeast  Level Estimated
02:25PM 34.1600 -80.8186 44° Northeast  Level Estimated
02:26PM 34.1808 -80.7941 44° Northeast  Level Estimated
02:27PM 34.2016 -80.7696 44° Northeast  Level Estimated
02:28PM 34.2224 -80.7451 44° Northeast  Level Estimated
02:29PM 34.2431 -80.7206 44° Northeast  Level Estimated
02:30PM 34.2639 -80.6961 44° Northeast  Level Estimated
02:31PM 34.2847 -80.6715 44° Northeast  Level Estimated
02:32PM 34.3055 -80.6470 44° Northeast  Level Estimated
02:33PM 34.3262 -80.6224 44° Northeast  Level Estimated
02:34PM 34.3470 -80.5979 44° Northeast  Level Estimated
02:35PM 34.3677 -80.5733 44° Northeast  Level Estimated
02:36PM 34.3885 -80.5487 44° Northeast  Level Estimated
02:37PM 34.4092 -80.5241 44° Northeast  Level Estimated
02:38PM 34.4299 -80.4994 44° Northeast  Level Estimated
02:39PM 34.4507 -80.4748 44° Northeast  Level Estimated
02:40PM 34.4714 -80.4501 44° Northeast  Level Estimated
02:41PM 34.4921 -80.4255 44° Northeast  Level Estimated
02:42PM 34.5128 -80.4008 44° Northeast  Level Estimated
02:43PM 34.5336 -80.3761 44° Northeast  Level Estimated
02:44PM 34.5543 -80.3514 44° Northeast  Level Estimated
02:45PM 34.5750 -80.3267 45° Northeast  Level Estimated
02:46PM 34.5957 -80.3020 45° Northeast  Level Estimated
02:47PM 34.6163 -80.2773 45° Northeast  Level Estimated
02:48PM 34.6370 -80.2525 45° Northeast  Level Estimated
02:49PM 34.6577 -80.2278 45° Northeast  Level Estimated
02:50PM 34.6784 -80.2030 45° Northeast  Level Estimated
02:51PM 34.6991 -80.1782 45° Northeast  Level Estimated
02:52PM 34.7197 -80.1534 45° Northeast  Level Estimated
02:53PM 34.7404 -80.1286 45° Northeast  Level Estimated
02:54PM 34.7611 -80.1038 45° Northeast  Level Estimated
02:55PM 34.7817 -80.0789 45° Northeast  Level Estimated
02:56PM 34.8023 -80.0541 45° Northeast  Level Estimated
02:57PM 34.8230 -80.0292 45° Northeast  Level Estimated
02:58PM 34.8436 -80.0044 45° Northeast  Level Estimated
02:59PM 34.8643 -79.9795 45° Northeast  Level Estimated
03:00PM 34.8849 -79.9546 45° Northeast  Level Estimated
03:01PM 34.9055 -79.9297 45° Northeast  Level Estimated
03:02PM 34.9261 -79.9047 45° Northeast  Level Estimated
03:03PM 34.9467 -79.8798 45° Northeast  Level Estimated
03:04PM 34.9673 -79.8549 45° Northeast  Level Estimated
03:05PM 34.9879 -79.8299 45° Northeast  Level Estimated
03:06PM 35.0085 -79.8049 45° Northeast  Level Estimated
03:07PM 35.0291 -79.7800 45° Northeast  Level Estimated
03:08PM 35.0497 -79.7550 45° Northeast  Level Estimated
03:09PM 35.0703 -79.7299 45° Northeast  Level Estimated
03:10PM 35.0908 -79.7049 45° Northeast  Level Estimated
03:11PM 35.1114 -79.6799 45° Northeast  Level Estimated
03:12PM 35.1320 -79.6548 45° Northeast  Level Estimated
03:13PM 35.1525 -79.6298 45° Northeast  Level Estimated
03:14PM 35.1731 -79.6047 45° Northeast  Level Estimated
03:15PM 35.1936 -79.5796 45° Northeast  Level Estimated
03:16PM 35.2141 -79.5545 45° Northeast  Level Estimated
03:17PM 35.2347 -79.5294 45° Northeast  Level Estimated
03:18PM 35.2552 -79.5043 45° Northeast  Level Estimated
03:19PM 35.2757 -79.4792 45° Northeast  Level Estimated
03:20PM 35.2963 -79.4540 45° Northeast  Level Estimated
03:21PM 35.3168 -79.4289 45° Northeast  Level Estimated
03:22PM 35.3373 -79.4037 45° Northeast  Level Estimated
03:23PM 35.3578 -79.3785 45° Northeast  Level Estimated
03:24PM 35.3783 -79.3533 45° Northeast  Level Estimated
03:25PM 35.3988 -79.3281 45° Northeast  Level Estimated
03:26PM 35.4193 -79.3029 45° Northeast  Level Estimated
03:27PM 35.4398 -79.2776 45° Northeast  Level Estimated
03:28PM 35.4603 -79.2524 45° Northeast  Level Estimated
03:29PM 35.4808 -79.2271 45° Northeast  Level Estimated
03:30PM 35.5012 -79.2018 45° Northeast  Level Estimated
03:31PM 35.5217 -79.1765 45° Northeast  Level Estimated
03:32PM 35.5421 -79.1512 45° Northeast  Level Estimated
03:33PM 35.5626 -79.1259 45° Northeast  Level Estimated
03:34PM 35.5824 -79.1013 45° Northeast  Level Estimated
03:35PM 35.5824 -79.1013 329° Northwest  Level Estimated
03:36PM 35.5824 -79.1013 329° Northwest  Level Estimated
03:37PM 35.5824 -79.1013 329° Northwest  Level Estimated
03:38PM 35.5824 -79.1013 329° Northwest  Level Estimated
03:39PM 35.5824 -79.1013 329° Northwest  Level Estimated
03:40PM 35.5824 -79.1013 329° Northwest  Level Estimated
03:41PM 35.5824 -79.1013 329° Northwest  Level Estimated
03:42PM 35.5824 -79.1013 329° Northwest  Level Estimated
03:43PM 35.5824 -79.1013 329° Northwest  Level Estimated
03:44PM 35.5824 -79.1013 329° Northwest  Level Estimated
03:45PM 35.5824 -79.1013 329° Northwest  Level Estimated
03:46PM 35.5824 -79.1013 329° Northwest  Level Estimated
03:47PM 35.5824 -79.1013 329° Northwest  Level Estimated
03:48PM 35.5824 -79.1013 329° Northwest  Level Estimated
03:49PM 35.5824 -79.1013 329° Northwest  Level Estimated